Time;durP1;ratioP1;P1;durP2;ratioP2;P2;SDS_P1;SDS_P2;PMS_P1;PMS_P2;Temp;Humidity;BMP_temperature;BMP_pressure;BME280_temperature;BME280_humidity;BME280_pressure;Samples;Min_cycle;Max_cycle;Signal;HPM_P1;HPM_P2
2020/12/11 00:00:57;;;;;;;;;;;20.30;90.60;;;;;;6146422;23;19920;-84
2020/12/11 00:03:41;;;;;;;;;;;20.20;90.50;;;;;;6183608;23;19925;-85
2020/12/11 00:06:27;;;;;;;;;;;20.30;90.50;;;;;;6131154;23;19924;-84
2020/12/11 00:13:00;;;;;;;;;;;20.30;90.50;;;;;;6030989;23;19920;-85
2020/12/11 00:19:53;;;;;;;;;;;20.20;90.50;;;;;;6128938;23;19928;-83
2020/12/11 00:22:53;;;;;;;;;;;;;;;;;;;;;
2020/12/11 00:25:30;;;;;;;;;;;20.20;90.60;;;;;;6168688;23;19972;-84
2020/12/11 00:28:19;;;;;;;;;;;20.20;90.60;;;;;;6210943;23;19920;-84
2020/12/11 00:31:45;;;;;;;;;;;20.20;90.60;;;;;;6180549;23;19925;-84
2020/12/11 00:34:22;;;;;;;;;;;20.20;90.60;;;;;;6172133;23;19938;-84
2020/12/11 00:37:19;;;;;;;;;;;20.10;90.60;;;;;;6150530;23;19927;-83
2020/12/11 00:40:04;;;;;;;;;;;20.10;90.60;;;;;;6072361;23;19935;-84
2020/12/11 00:42:46;;;;;;;;;;;20.10;90.60;;;;;;6091543;23;19926;-84
2020/12/11 00:45:36;;;;;;;;;;;20.10;90.60;;;;;;6086941;23;19987;-84
2020/12/11 00:48:24;;;;;;;;;;;20.10;90.60;;;;;;6090720;23;19925;-84
2020/12/11 00:50:53;;;;;;;;;;;20.10;90.60;;;;;;6078526;23;20361;-84
2020/12/11 00:53:32;;;;;;;;;;;20.10;90.50;;;;;;6055680;23;19932;-84
2020/12/11 00:56:27;;;;;;;;;;;20.10;90.50;;;;;;6061766;23;19931;-84
2020/12/11 00:59:04;;;;;;;;;;;20.10;90.50;;;;;;6079558;23;19925;-84
2020/12/11 01:01:48;;;;;;;;;;;20.10;90.40;;;;;;6078836;23;19925;-84
2020/12/11 01:04:18;;;;;;;;;;;20.10;90.40;;;;;;6053691;23;20412;-84
2020/12/11 01:06:57;;;;;;;;;;;20.10;90.40;;;;;;6057751;23;19921;-83
2020/12/11 01:09:29;;;;;;;;;;;20.10;90.40;;;;;;6090287;23;20225;-84
2020/12/11 01:11:59;;;;;;;;;;;20.10;90.40;;;;;;6056384;23;19925;-83
2020/12/11 01:14:33;;;;;;;;;;;20.00;90.40;;;;;;6055121;23;20556;-85
2020/12/11 01:17:02;;;;;;;;;;;20.00;90.50;;;;;;6096930;23;19927;-85
2020/12/11 01:19:48;;;;;;;;;;;;;;;;;;;;;
2020/12/11 01:22:26;;;;;;;;;;;;;;;;;;;;;
2020/12/11 01:25:11;;;;;;;;;;;19.90;90.70;;;;;;6165579;23;19931;-83
2020/12/11 01:27:41;;;;;;;;;;;19.90;90.80;;;;;;6144918;23;19925;-83
2020/12/11 01:30:19;;;;;;;;;;;19.80;90.80;;;;;;6143908;23;19946;-83
2020/12/11 01:32:54;;;;;;;;;;;19.80;90.90;;;;;;6174705;23;19920;-84
2020/12/11 01:35:27;;;;;;;;;;;19.80;90.90;;;;;;6178037;23;20271;-85
2020/12/11 01:37:57;;;;;;;;;;;19.70;90.90;;;;;;6206015;23;19924;-84
2020/12/11 01:40:36;;;;;;;;;;;19.70;91.00;;;;;;6168743;23;19924;-84
2020/12/11 01:43:36;;;;;;;;;;;19.70;91.10;;;;;;6150585;23;19943;-84
2020/12/11 01:46:36;;;;;;;;;;;;;;;;;;;;;
2020/12/11 01:49:33;;;;;;;;;;;19.60;91.20;;;;;;6193426;23;19920;-86
2020/12/11 01:52:26;;;;;;;;;;;19.60;91.20;;;;;;6163331;23;19917;-85
2020/12/11 01:55:26;;;;;;;;;;;19.60;91.30;;;;;;6150612;23;19926;-84
2020/12/11 01:58:42;;;;;;;;;;;19.60;91.40;;;;;;6166215;23;19925;-83
2020/12/11 02:01:29;;;;;;;;;;;19.50;91.40;;;;;;6207205;23;19929;-84
2020/12/11 02:04:16;;;;;;;;;;;19.50;91.50;;;;;;6160227;23;19927;-84
2020/12/11 02:07:12;;;;;;;;;;;19.50;91.50;;;;;;6183371;23;19924;-84
2020/12/11 02:09:44;;;;;;;;;;;19.40;91.50;;;;;;6208676;23;19909;-84
2020/12/11 02:12:18;;;;;;;;;;;19.40;91.50;;;;;;6159735;23;19918;-84
2020/12/11 02:14:48;;;;;;;;;;;19.40;91.60;;;;;;6149459;23;19927;-84
2020/12/11 02:17:15;;;;;;;;;;;19.40;91.60;;;;;;6205795;23;19918;-84
2020/12/11 02:19:43;;;;;;;;;;;19.50;91.60;;;;;;6184145;23;19908;-83
2020/12/11 02:22:12;;;;;;;;;;;19.50;91.60;;;;;;6171383;23;19930;-84
2020/12/11 02:24:48;;;;;;;;;;;19.50;91.50;;;;;;6159562;23;19914;-84
2020/12/11 02:27:39;;;;;;;;;;;19.60;91.50;;;;;;6161332;23;19909;-84
2020/12/11 02:30:19;;;;;;;;;;;19.60;91.30;;;;;;6193950;23;19924;-84
2020/12/11 02:33:29;;;;;;;;;;;19.70;91.10;;;;;;6159401;23;19919;-84
2020/12/11 02:36:21;;;;;;;;;;;19.70;91.00;;;;;;6159416;23;19935;-83
2020/12/11 02:38:48;;;;;;;;;;;19.80;90.90;;;;;;6211055;23;19920;-83
2020/12/11 02:41:30;;;;;;;;;;;19.80;90.80;;;;;;6152708;23;19920;-84
2020/12/11 02:44:12;;;;;;;;;;;19.80;90.70;;;;;;6159071;23;19924;-85
2020/12/11 02:47:08;;;;;;;;;;;19.80;90.60;;;;;;6195249;23;19968;-85
2020/12/11 02:49:35;;;;;;;;;;;19.80;90.60;;;;;;6187788;23;19956;-84
2020/12/11 02:52:02;;;;;;;;;;;19.80;90.70;;;;;;6186549;23;19952;-83
2020/12/11 02:54:29;;;;;;;;;;;19.80;90.70;;;;;;6186676;23;19924;-82
2020/12/11 02:56:55;;;;;;;;;;;19.70;90.70;;;;;;6159884;23;19939;-83
2020/12/11 02:59:31;;;;;;;;;;;19.70;90.80;;;;;;6159058;23;19924;-82
2020/12/11 03:01:58;;;;;;;;;;;19.70;90.80;;;;;;6197733;23;19920;-84
2020/12/11 03:04:29;;;;;;;;;;;19.70;90.80;;;;;;6175720;23;19931;-85
2020/12/11 03:07:07;;;;;;;;;;;19.70;90.90;;;;;;6149677;23;19920;-84
2020/12/11 03:09:53;;;;;;;;;;;19.70;90.90;;;;;;6211382;23;19920;-84
2020/12/11 03:12:20;;;;;;;;;;;19.60;90.90;;;;;;6148479;23;19924;-84
2020/12/11 03:14:55;;;;;;;;;;;19.60;90.90;;;;;;6197655;23;19928;-85
2020/12/11 03:18:09;;;;;;;;;;;;;;;;;;;;;
2020/12/11 03:25:22;;;;;;;;;;;19.50;91.10;;;;;;6092034;23;19902;-84
2020/12/11 03:28:25;;;;;;;;;;;19.40;91.20;;;;;;6083354;23;19925;-82
2020/12/11 03:31:22;;;;;;;;;;;19.40;91.20;;;;;;6097525;23;19924;-82
2020/12/11 03:34:10;;;;;;;;;;;19.40;91.20;;;;;;6063168;23;19932;-83
2020/12/11 03:40:24;;;;;;;;;;;19.30;91.30;;;;;;6054481;23;19910;-84
2020/12/11 03:43:04;;;;;;;;;;;19.30;91.40;;;;;;6073388;23;19929;-84
2020/12/11 03:45:31;;;;;;;;;;;19.30;91.50;;;;;;6078584;23;19926;-83
2020/12/11 03:47:58;;;;;;;;;;;19.30;91.50;;;;;;6081755;23;19925;-82
2020/12/11 03:50:25;;;;;;;;;;;19.30;91.50;;;;;;6080568;23;19926;-84
2020/12/11 03:52:51;;;;;;;;;;;19.30;91.40;;;;;;6052038;23;19937;-86
2020/12/11 03:55:19;;;;;;;;;;;19.30;91.40;;;;;;6075155;23;19925;-85
2020/12/11 03:57:45;;;;;;;;;;;19.30;91.40;;;;;;6061483;23;20505;-85
2020/12/11 04:00:12;;;;;;;;;;;19.40;91.30;;;;;;6109865;23;19921;-83
2020/12/11 04:02:39;;;;;;;;;;;19.40;91.30;;;;;;6194246;23;19927;-84
2020/12/11 04:05:06;;;;;;;;;;;19.40;91.20;;;;;;6169342;23;19931;-84
2020/12/11 04:07:33;;;;;;;;;;;19.40;91.20;;;;;;6195683;23;19935;-84
2020/12/11 04:10:01;;;;;;;;;;;19.40;91.10;;;;;;6168029;23;19920;-85
2020/12/11 04:12:27;;;;;;;;;;;19.40;91.10;;;;;;6167645;23;19920;-84
2020/12/11 04:14:54;;;;;;;;;;;19.40;91.10;;;;;;6168171;23;19920;-84
2020/12/11 04:17:21;;;;;;;;;;;19.40;91.00;;;;;;6193871;23;20428;-84
2020/12/11 04:19:48;;;;;;;;;;;19.40;91.00;;;;;;6193889;23;20236;-84
2020/12/11 04:22:15;;;;;;;;;;;19.40;91.10;;;;;;6167075;23;20261;-84
2020/12/11 04:24:42;;;;;;;;;;;19.30;91.10;;;;;;6168318;23;19921;-85
2020/12/11 04:27:09;;;;;;;;;;;19.30;91.10;;;;;;6197836;23;19920;-84
2020/12/11 04:29:36;;;;;;;;;;;19.30;91.20;;;;;;6150110;23;19927;-84
2020/12/11 04:32:03;;;;;;;;;;;19.20;91.20;;;;;;6155696;23;19935;-84
2020/12/11 04:34:30;;;;;;;;;;;19.20;91.30;;;;;;6203334;23;19939;-82
2020/12/11 04:36:58;;;;;;;;;;;19.10;91.30;;;;;;6207425;23;19935;-85
2020/12/11 04:39:25;;;;;;;;;;;19.10;91.40;;;;;;6179569;23;19920;-84
2020/12/11 04:41:52;;;;;;;;;;;19.10;91.50;;;;;;6180102;23;19957;-84
2020/12/11 04:44:20;;;;;;;;;;;19.10;91.50;;;;;;6182479;23;19924;-84
2020/12/11 04:46:47;;;;;;;;;;;19.10;91.60;;;;;;6178056;23;20360;-85
2020/12/11 04:49:14;;;;;;;;;;;19.00;91.60;;;;;;6173811;23;19935;-85
2020/12/11 04:51:46;;;;;;;;;;;19.00;91.60;;;;;;6171927;23;20620;-85
2020/12/11 04:54:16;;;;;;;;;;;19.00;91.70;;;;;;6169742;23;19921;-84
2020/12/11 04:56:46;;;;;;;;;;;19.00;91.80;;;;;;6196505;23;19926;-84
2020/12/11 04:59:13;;;;;;;;;;;19.00;91.80;;;;;;6143855;23;19920;-84
2020/12/11 05:01:39;;;;;;;;;;;19.10;91.70;;;;;;6168774;23;19926;-84
2020/12/11 05:04:06;;;;;;;;;;;19.20;91.50;;;;;;6169062;23;19926;-85
2020/12/11 05:06:33;;;;;;;;;;;19.40;91.40;;;;;;6169336;23;19924;-84
2020/12/11 05:09:14;;;;;;;;;;;19.50;90.80;;;;;;6170054;23;19927;-84
2020/12/11 05:11:41;;;;;;;;;;;19.70;90.30;;;;;;6183311;23;20059;-84
2020/12/11 05:14:25;;;;;;;;;;;19.90;89.70;;;;;;6182110;23;19935;-84
2020/12/11 05:17:02;;;;;;;;;;;20.10;88.90;;;;;;6154427;23;19921;-85
2020/12/11 05:19:31;;;;;;;;;;;20.20;88.20;;;;;;6188226;23;19920;-84
2020/12/11 05:22:11;;;;;;;;;;;20.30;87.60;;;;;;6179127;23;19920;-85
2020/12/11 05:24:42;;;;;;;;;;;20.50;86.60;;;;;;6152370;23;19924;-85
2020/12/11 05:27:25;;;;;;;;;;;20.70;85.60;;;;;;6210271;23;19976;-85
2020/12/11 05:30:12;;;;;;;;;;;21.00;84.80;;;;;;6170193;23;20255;-84
2020/12/11 05:32:41;;;;;;;;;;;21.10;84.00;;;;;;6134960;23;19928;-82
2020/12/11 05:35:15;;;;;;;;;;;21.30;83.20;;;;;;6165083;23;19926;-84
2020/12/11 05:37:44;;;;;;;;;;;21.40;82.70;;;;;;6192081;23;19927;-84
2020/12/11 05:40:15;;;;;;;;;;;21.50;82.30;;;;;;6142772;23;19927;-84
2020/12/11 05:42:42;;;;;;;;;;;21.60;82.00;;;;;;6181301;23;19920;-85
2020/12/11 05:45:18;;;;;;;;;;;21.70;81.60;;;;;;6206812;23;19935;-83
2020/12/11 05:47:45;;;;;;;;;;;21.70;81.40;;;;;;6153974;23;20322;-84
2020/12/11 05:50:19;;;;;;;;;;;21.70;81.10;;;;;;6174286;23;19927;-84
2020/12/11 05:52:51;;;;;;;;;;;21.80;81.10;;;;;;6212513;23;19908;-84
2020/12/11 05:55:18;;;;;;;;;;;21.70;81.10;;;;;;6176051;23;20004;-85
2020/12/11 05:57:45;;;;;;;;;;;21.70;81.10;;;;;;6167075;23;19924;-85
2020/12/11 06:00:12;;;;;;;;;;;21.80;81.10;;;;;;6145921;23;19920;-86
2020/12/11 06:03:14;;;;;;;;;;;21.80;81.20;;;;;;6148502;23;19927;-84
2020/12/11 06:10:06;;;;;;;;;;;21.70;81.60;;;;;;6038918;23;19922;-84
2020/12/11 06:16:44;;;;;;;;;;;;;;;;;;;;;
2020/12/11 06:19:31;;;;;;;;;;;21.80;81.60;;;;;;6229762;22;19934;-89
2020/12/11 06:22:33;;;;;;;;;;;21.80;81.60;;;;;;6180850;23;19923;-84
2020/12/11 06:25:25;;;;;;;;;;;21.80;81.50;;;;;;6214743;23;19924;-85
2020/12/11 06:27:59;;;;;;;;;;;21.80;81.50;;;;;;6203906;23;19934;-86
2020/12/11 06:30:36;;;;;;;;;;;21.80;81.70;;;;;;6206572;23;19919;-86
2020/12/11 06:33:07;;;;;;;;;;;21.80;81.90;;;;;;6203284;23;19926;-84
2020/12/11 06:39:44;;;;;;;;;;;21.70;81.90;;;;;;6120555;23;19925;-85
2020/12/11 06:42:46;;;;;;;;;;;22.00;81.50;;;;;;6077092;23;19930;-80
2020/12/11 06:46:08;;;;;;;;;;;22.30;80.60;;;;;;6103198;23;19928;-83
2020/12/11 06:49:23;;;;;;;;;;;22.60;79.90;;;;;;6113491;23;19932;-82
2020/12/11 06:52:02;;;;;;;;;;;22.80;74.60;;;;;;6131912;23;19968;-84
2020/12/11 06:54:35;;;;;;;;;;;22.50;59.30;;;;;;6130709;23;19935;-86
2020/12/11 06:57:26;;;;;;;;;;;21.90;57.00;;;;;;6202137;23;19926;-81
2020/12/11 07:00:29;;;;;;;;;;;21.50;55.30;;;;;;6208588;23;19927;-84
2020/12/11 07:03:19;;;;;;;;;;;21.20;55.70;;;;;;6198953;23;19920;-84
2020/12/11 07:06:20;;;;;;;;;;;21.30;59.20;;;;;;6198166;23;19923;-84
2020/12/11 07:08:57;;;;;;;;;;;21.50;61.20;;;;;;6115316;23;19935;-85
2020/12/11 07:11:30;;;;;;;;;;;21.70;62.70;;;;;;6209128;23;19923;-87
2020/12/11 07:14:04;;;;;;;;;;;21.90;63.70;;;;;;6236140;23;19929;-84
2020/12/11 07:16:48;;;;;;;;;;;22.00;64.20;;;;;;6230347;23;20231;-84
2020/12/11 07:19:36;;;;;;;;;;;22.20;64.90;;;;;;6209083;23;19908;-85
2020/12/11 07:22:05;;;;;;;;;;;22.20;65.80;;;;;;6191664;23;19918;-88
2020/12/11 07:34:26;;;;;;;;;;;22.50;68.10;;;;;;6078639;23;19910;-85
2020/12/11 07:37:59;;;;;;;;;;;22.50;68.70;;;;;;5992901;23;19926;-88
2020/12/11 07:53:11;;;;;;;;;;;22.10;72.50;;;;;;6076370;23;19921;-85
2020/12/11 07:57:02;;;;;;;;;;;22.10;73.10;;;;;;6040971;23;20042;-84
2020/12/11 07:59:50;;;;;;;;;;;;;;;;;;;;;
2020/12/11 08:35:59;;;;;;;;;;;21.60;80.70;;;;;;6141534;23;19921;-85
2020/12/11 09:02:10;;;;;;;;;;;21.80;81.50;;;;;;6180230;23;19928;-85
2020/12/11 09:04:38;;;;;;;;;;;21.90;81.10;;;;;;6170614;23;19924;-83
2020/12/11 09:07:07;;;;;;;;;;;21.80;80.90;;;;;;6213858;23;19923;-84
2020/12/11 09:09:34;;;;;;;;;;;21.70;80.60;;;;;;6189085;23;19924;-82
2020/12/11 09:12:02;;;;;;;;;;;21.70;80.70;;;;;;6189199;23;19924;-85
2020/12/11 09:14:50;;;;;;;;;;;21.60;80.70;;;;;;6196593;23;19935;-84
2020/12/11 09:17:20;;;;;;;;;;;21.60;80.70;;;;;;6204696;23;19934;-85
2020/12/11 09:20:01;;;;;;;;;;;21.70;81.10;;;;;;6168088;23;19935;-82
2020/12/11 09:22:28;;;;;;;;;;;21.80;81.20;;;;;;6214931;23;19931;-83
2020/12/11 09:28:51;;;;;;;;;;;21.90;82.00;;;;;;6211689;23;19924;-80
2020/12/11 09:39:55;;;;;;;;;;;;;;;;;;;;;
2020/12/11 09:58:45;;;;;;;;;;;22.30;80.10;;;;;;6082299;23;19909;-82
2020/12/11 10:02:15;;;;;;;;;;;22.20;80.60;;;;;;6079470;23;20591;-85
2020/12/11 10:04:51;;;;;;;;;;;22.20;80.10;;;;;;6041639;23;20922;-83
2020/12/11 10:07:45;;;;;;;;;;;22.20;80.40;;;;;;6035483;23;19926;-84
2020/12/11 10:10:13;;;;;;;;;;;22.20;80.70;;;;;;6038227;23;19932;-82
2020/12/11 10:12:42;;;;;;;;;;;22.20;80.80;;;;;;6059683;23;19941;-82
2020/12/11 10:15:10;;;;;;;;;;;22.20;80.80;;;;;;6038753;23;19966;-82
2020/12/11 10:17:41;;;;;;;;;;;22.20;80.80;;;;;;6114802;23;19924;-84
2020/12/11 10:20:45;;;;;;;;;;;22.20;81.00;;;;;;6142917;23;19920;-82
2020/12/11 10:23:16;;;;;;;;;;;22.20;81.10;;;;;;6151886;23;19924;-81
2020/12/11 10:25:43;;;;;;;;;;;22.20;81.20;;;;;;6098613;23;19924;-83
2020/12/11 10:28:10;;;;;;;;;;;22.20;81.60;;;;;;6147251;23;19925;-82
2020/12/11 10:30:38;;;;;;;;;;;22.20;81.50;;;;;;6148834;23;19925;-83
2020/12/11 10:33:08;;;;;;;;;;;22.20;81.70;;;;;;6126042;23;19924;-82
2020/12/11 10:35:35;;;;;;;;;;;22.20;81.90;;;;;;6125764;23;19929;-82
2020/12/11 10:38:03;;;;;;;;;;;22.30;81.70;;;;;;6154955;23;19927;-82
2020/12/11 10:40:30;;;;;;;;;;;22.30;81.60;;;;;;6126127;23;19935;-82
2020/12/11 10:43:02;;;;;;;;;;;22.40;81.20;;;;;;6128039;23;19932;-83
2020/12/11 10:45:34;;;;;;;;;;;22.50;80.80;;;;;;6131349;23;19931;-81
2020/12/11 10:48:09;;;;;;;;;;;22.50;80.80;;;;;;6155411;23;19908;-83
2020/12/11 10:50:49;;;;;;;;;;;22.60;81.20;;;;;;6153887;23;19925;-82
2020/12/11 10:53:17;;;;;;;;;;;22.60;80.80;;;;;;6153126;23;19924;-82
2020/12/11 10:55:44;;;;;;;;;;;22.60;80.50;;;;;;6131787;23;19932;-81
2020/12/11 10:58:11;;;;;;;;;;;22.60;79.90;;;;;;6154906;23;19928;-84
2020/12/11 11:00:38;;;;;;;;;;;22.50;80.20;;;;;;6134032;23;19924;-83
2020/12/11 11:03:06;;;;;;;;;;;22.50;80.40;;;;;;6154936;23;19931;-81
2020/12/11 11:05:33;;;;;;;;;;;22.40;80.50;;;;;;6130811;23;19924;-82
2020/12/11 11:08:00;;;;;;;;;;;22.40;80.00;;;;;;6129809;23;19924;-81
2020/12/11 11:10:40;;;;;;;;;;;22.40;80.30;;;;;;6129890;23;19930;-83
2020/12/11 11:15:44;;;;;;;;;;;22.30;81.00;;;;;;6156668;23;19924;-81
2020/12/11 11:23:35;;;;;;;;;;;22.20;81.20;;;;;;6139424;23;20062;-83
2020/12/11 11:28:51;;;;;;;;;;;22.10;80.80;;;;;;6157491;23;19928;-82
2020/12/11 11:31:18;;;;;;;;;;;22.10;81.20;;;;;;6158115;23;19921;-80
2020/12/11 11:33:45;;;;;;;;;;;22.30;80.70;;;;;;6160690;23;19932;-81
2020/12/11 11:36:13;;;;;;;;;;;22.40;80.60;;;;;;6132736;23;19925;-81
2020/12/11 11:38:40;;;;;;;;;;;22.60;80.50;;;;;;6171972;23;19924;-83
2020/12/11 11:42:07;;;;;;;;;;;22.80;79.40;;;;;;6164593;23;19929;-81
2020/12/11 11:46:41;;;;;;;;;;;23.30;78.70;;;;;;6144308;23;19935;-81
2020/12/11 11:49:10;;;;;;;;;;;23.50;78.10;;;;;;6159277;23;19931;-80
2020/12/11 11:51:50;;;;;;;;;;;23.60;77.50;;;;;;6132918;23;19924;-82
2020/12/11 11:54:17;;;;;;;;;;;23.60;77.30;;;;;;6134644;23;20352;-83
2020/12/11 11:56:44;;;;;;;;;;;23.60;77.30;;;;;;6166041;23;19925;-81
2020/12/11 11:59:11;;;;;;;;;;;23.60;77.10;;;;;;6172266;23;19931;-81
2020/12/11 12:01:38;;;;;;;;;;;23.70;77.30;;;;;;6175015;23;19931;-81
2020/12/11 12:04:05;;;;;;;;;;;23.70;77.20;;;;;;6144663;23;19941;-82
2020/12/11 12:06:33;;;;;;;;;;;23.70;77.30;;;;;;6160728;23;19925;-82
2020/12/11 12:08:59;;;;;;;;;;;23.70;77.30;;;;;;6156797;23;19931;-81
2020/12/11 12:11:28;;;;;;;;;;;23.70;77.20;;;;;;6157996;23;19929;-82
2020/12/11 12:13:55;;;;;;;;;;;23.70;77.30;;;;;;6143358;23;19919;-81
2020/12/11 12:16:22;;;;;;;;;;;23.60;77.20;;;;;;6142117;23;19935;-82
2020/12/11 12:18:54;;;;;;;;;;;23.60;78.00;;;;;;6133673;23;19928;-80
2020/12/11 12:21:37;;;;;;;;;;;23.50;77.60;;;;;;6127095;23;19930;-81
2020/12/11 12:29:41;;;;;;;;;;;23.20;78.00;;;;;;6167263;23;19928;-83
2020/12/11 12:32:14;;;;;;;;;;;23.20;78.40;;;;;;6131469;23;19924;-80
2020/12/11 12:40:35;;;;;;;;;;;23.10;80.70;;;;;;6142152;23;19928;-85
2020/12/11 12:45:35;;;;;;;;;;;23.30;91.70;;;;;;6133145;23;20650;-83
2020/12/11 12:48:02;;;;;;;;;;;23.30;92.40;;;;;;6134047;23;19931;-84
2020/12/11 12:50:30;;;;;;;;;;;23.40;91.90;;;;;;6129645;23;19932;-84
2020/12/11 12:52:58;;;;;;;;;;;23.40;91.40;;;;;;6153399;23;19925;-85
2020/12/11 12:55:40;;;;;;;;;;;23.30;91.20;;;;;;6128502;23;19925;-86
2020/12/11 12:58:09;;;;;;;;;;;23.10;91.10;;;;;;6103477;23;19931;-87
2020/12/11 13:03:26;;;;;;;;;;;23.00;90.70;;;;;;6167582;23;19928;-84
2020/12/11 13:05:53;;;;;;;;;;;23.10;90.20;;;;;;6143040;23;20030;-84
2020/12/11 13:08:20;;;;;;;;;;;23.10;89.90;;;;;;6136077;23;20246;-83
2020/12/11 13:10:47;;;;;;;;;;;23.20;88.60;;;;;;6128918;23;19924;-81
2020/12/11 13:13:15;;;;;;;;;;;23.20;88.10;;;;;;6156657;23;19931;-83
2020/12/11 13:15:42;;;;;;;;;;;23.30;88.00;;;;;;6129550;23;20382;-83
2020/12/11 13:18:09;;;;;;;;;;;23.40;87.70;;;;;;6104047;23;19935;-83
2020/12/11 13:20:41;;;;;;;;;;;23.40;87.90;;;;;;6129271;23;20291;-83
2020/12/11 13:28:31;;;;;;;;;;;23.50;85.50;;;;;;6166367;23;19929;-84
2020/12/11 13:31:01;;;;;;;;;;;23.50;84.90;;;;;;6130129;23;19931;-86
2020/12/11 13:33:29;;;;;;;;;;;23.40;84.70;;;;;;6129892;23;19924;-82
2020/12/11 13:35:59;;;;;;;;;;;23.30;85.10;;;;;;6132833;23;19925;-83
2020/12/11 13:38:26;;;;;;;;;;;23.20;85.40;;;;;;6129141;23;19931;-84
2020/12/11 13:40:54;;;;;;;;;;;23.10;85.50;;;;;;6153997;23;20272;-82
2020/12/11 13:43:37;;;;;;;;;;;23.10;85.60;;;;;;6100218;23;19925;-85
2020/12/11 13:46:22;;;;;;;;;;;22.90;85.60;;;;;;6105823;23;19945;-84
2020/12/11 13:48:51;;;;;;;;;;;23.00;85.30;;;;;;6149344;23;19925;-85
2020/12/11 13:51:19;;;;;;;;;;;23.10;84.80;;;;;;6127983;23;19925;-84
2020/12/11 13:54:00;;;;;;;;;;;23.10;84.60;;;;;;6106795;23;19926;-83
2020/12/11 14:00:26;;;;;;;;;;;23.20;83.90;;;;;;6111623;23;19925;-83
2020/12/11 14:03:02;;;;;;;;;;;23.10;83.90;;;;;;6118767;23;19925;-83
2020/12/11 14:05:45;;;;;;;;;;;23.00;83.80;;;;;;6165602;23;19923;-82
2020/12/11 14:08:30;;;;;;;;;;;23.00;83.30;;;;;;6138636;23;20411;-86
2020/12/11 14:11:09;;;;;;;;;;;22.90;83.40;;;;;;6171870;23;19925;-84
2020/12/11 14:13:57;;;;;;;;;;;22.90;83.60;;;;;;6118228;23;19935;-85
2020/12/11 14:16:47;;;;;;;;;;;22.80;83.70;;;;;;6169671;23;19915;-83
2020/12/11 14:24:47;;;;;;;;;;;22.70;84.20;;;;;;6162354;23;19924;-83
2020/12/11 14:27:44;;;;;;;;;;;22.60;84.80;;;;;;6152308;23;19912;-81
2020/12/11 14:30:27;;;;;;;;;;;22.50;85.00;;;;;;6170199;23;19931;-82
2020/12/11 14:33:02;;;;;;;;;;;22.50;85.00;;;;;;6140024;23;19939;-84
2020/12/11 14:35:29;;;;;;;;;;;22.50;85.20;;;;;;6161706;23;19931;-84
2020/12/11 14:38:12;;;;;;;;;;;22.50;84.90;;;;;;6164163;23;19935;-84
2020/12/11 14:40:50;;;;;;;;;;;22.50;85.80;;;;;;6129273;23;20002;-84
2020/12/11 14:43:33;;;;;;;;;;;;;;;;;;;;;
2020/12/11 14:46:24;;;;;;;;;;;22.30;87.10;;;;;;6126629;23;19932;-84
2020/12/11 14:49:10;;;;;;;;;;;22.30;87.00;;;;;;6138694;23;19924;-85
2020/12/11 14:52:11;;;;;;;;;;;22.30;87.60;;;;;;6128392;23;19931;-85
2020/12/11 14:54:58;;;;;;;;;;;22.30;87.20;;;;;;6159656;23;20340;-85
2020/12/11 14:57:49;;;;;;;;;;;22.40;86.70;;;;;;6106030;23;19931;-86
2020/12/11 15:00:34;;;;;;;;;;;22.40;86.40;;;;;;6112296;23;19925;-86
2020/12/11 15:03:07;;;;;;;;;;;22.50;86.00;;;;;;6111716;23;19929;-83
2020/12/11 15:05:56;;;;;;;;;;;22.70;85.40;;;;;;6146075;23;19939;-81
2020/12/11 15:08:35;;;;;;;;;;;22.80;84.40;;;;;;6131437;23;19925;-81
2020/12/11 15:11:20;;;;;;;;;;;23.00;84.10;;;;;;6131080;23;20386;-87
2020/12/11 15:13:54;;;;;;;;;;;23.10;83.60;;;;;;6151695;23;19925;-83
2020/12/11 15:16:32;;;;;;;;;;;23.10;83.40;;;;;;6128329;23;19931;-81
2020/12/11 15:19:04;;;;;;;;;;;23.20;83.30;;;;;;6081019;23;19924;-81
2020/12/11 15:21:31;;;;;;;;;;;23.30;82.50;;;;;;6124214;23;19924;-82
2020/12/11 15:28:13;;;;;;;;;;;23.30;82.40;;;;;;5979360;23;19933;-86
2020/12/11 15:34:17;;;;;;;;;;;23.20;82.30;;;;;;6034389;23;20262;-84
2020/12/11 15:37:36;;;;;;;;;;;23.10;82.50;;;;;;6025882;23;19914;-84
2020/12/11 15:44:43;;;;;;;;;;;23.00;82.90;;;;;;5981235;23;20232;-82
2020/12/11 15:47:24;;;;;;;;;;;;;;;;;;;;;
2020/12/11 15:51:15;;;;;;;;;;;;;;;;;;;;;
2020/12/11 15:58:18;;;;;;;;;;;22.60;83.80;;;;;;5989893;23;20053;-82
2020/12/11 16:01:33;;;;;;;;;;;22.60;84.20;;;;;;6020235;23;19925;-83
2020/12/11 16:05:02;;;;;;;;;;;;;;;;;;;;;
2020/12/11 16:15:16;;;;;;;;;;;22.40;84.90;;;;;;5964751;24;19929;-84
2020/12/11 16:18:36;;;;;;;;;;;22.30;84.90;;;;;;5959769;24;19923;-83
2020/12/11 16:21:33;;;;;;;;;;;22.30;85.00;;;;;;5945428;24;19930;-83
2020/12/11 16:27:36;;;;;;;;;;;22.40;84.80;;;;;;5941575;24;19927;-83
2020/12/11 16:30:23;;;;;;;;;;;22.50;84.30;;;;;;5959440;23;19926;-82
2020/12/11 16:33:02;;;;;;;;;;;22.70;83.70;;;;;;5984692;23;19922;-81
2020/12/11 16:36:03;;;;;;;;;;;22.90;83.10;;;;;;6011172;23;19926;-84
2020/12/11 16:38:40;;;;;;;;;;;23.00;82.60;;;;;;6010267;23;19911;-82
2020/12/11 16:42:02;;;;;;;;;;;23.10;82.20;;;;;;6073983;23;19922;-88
2020/12/11 16:52:33;;;;;;;;;;;23.10;85.50;;;;;;6112064;23;19925;-80
2020/12/11 16:55:25;;;;;;;;;;;23.10;85.30;;;;;;6125278;23;19929;-82
2020/12/11 16:57:53;;;;;;;;;;;23.10;83.70;;;;;;6129239;23;19935;-82
2020/12/11 17:00:24;;;;;;;;;;;23.00;75.50;;;;;;6128716;23;19924;-81
2020/12/11 17:05:30;;;;;;;;;;;23.00;64.40;;;;;;6132469;23;19921;-82
2020/12/11 17:08:19;;;;;;;;;;;22.90;61.50;;;;;;6149080;23;19924;-82
2020/12/11 17:10:46;;;;;;;;;;;23.50;59.60;;;;;;6157772;23;19915;-79
2020/12/11 17:13:13;;;;;;;;;;;23.40;58.40;;;;;;6150783;23;19977;-86
2020/12/11 17:15:42;;;;;;;;;;;23.20;58.30;;;;;;6175058;23;19960;-86
2020/12/11 17:18:09;;;;;;;;;;;23.50;58.30;;;;;;6149007;23;19935;-81
2020/12/11 17:20:36;;;;;;;;;;;23.40;56.70;;;;;;6148139;23;19925;-81
2020/12/11 17:23:03;;;;;;;;;;;23.50;58.10;;;;;;6144976;23;19936;-85
2020/12/11 17:25:47;;;;;;;;;;;23.50;58.80;;;;;;6134846;23;19927;-87
2020/12/11 17:28:23;;;;;;;;;;;23.50;59.90;;;;;;6130372;23;19925;-86
2020/12/11 17:30:56;;;;;;;;;;;23.50;60.90;;;;;;6140449;23;19931;-83
2020/12/11 17:33:32;;;;;;;;;;;23.50;61.80;;;;;;6139612;23;19932;-83
2020/12/11 17:35:59;;;;;;;;;;;23.60;62.60;;;;;;6127113;23;19924;-83
2020/12/11 17:38:26;;;;;;;;;;;23.80;62.80;;;;;;6150709;23;19931;-84
2020/12/11 17:40:53;;;;;;;;;;;24.00;62.80;;;;;;6127339;23;19929;-84
2020/12/11 17:43:20;;;;;;;;;;;24.00;63.30;;;;;;6127830;23;19946;-83
2020/12/11 17:45:46;;;;;;;;;;;24.00;64.00;;;;;;6109564;23;19925;-82
2020/12/11 17:48:14;;;;;;;;;;;23.90;64.70;;;;;;6157469;23;19935;-83
2020/12/11 17:50:41;;;;;;;;;;;23.90;65.00;;;;;;6159921;23;20340;-82
2020/12/11 17:53:08;;;;;;;;;;;23.90;65.40;;;;;;6136214;23;19925;-82
2020/12/11 17:55:36;;;;;;;;;;;23.90;65.80;;;;;;6164668;23;19926;-83
2020/12/11 17:58:03;;;;;;;;;;;24.00;66.20;;;;;;6160477;23;19931;-83
2020/12/11 18:00:35;;;;;;;;;;;24.00;67.00;;;;;;6136267;23;19925;-83
2020/12/11 18:03:05;;;;;;;;;;;24.00;66.70;;;;;;6160021;23;19925;-83
2020/12/11 18:05:32;;;;;;;;;;;24.00;66.90;;;;;;6157451;23;19925;-83
2020/12/11 18:07:59;;;;;;;;;;;24.00;67.10;;;;;;6130784;23;19920;-83
2020/12/11 18:10:27;;;;;;;;;;;24.00;67.40;;;;;;6159363;23;19924;-83
2020/12/11 18:12:54;;;;;;;;;;;24.00;67.70;;;;;;6158394;23;19925;-83
2020/12/11 18:15:21;;;;;;;;;;;24.00;68.10;;;;;;6157422;23;20379;-83
2020/12/11 18:17:53;;;;;;;;;;;24.00;68.40;;;;;;6153757;23;19920;-86
2020/12/11 18:20:25;;;;;;;;;;;24.00;68.50;;;;;;6133026;23;20359;-84
2020/12/11 18:40:17;;;;;;;;;;;;;;;;;;;;;
2020/12/11 18:59:47;;;;;;;;;;;23.30;72.40;;;;;;5994806;24;19921;-85
2020/12/11 19:02:17;;;;;;;;;;;23.30;72.80;;;;;;5979330;24;20639;-83
2020/12/11 19:04:44;;;;;;;;;;;23.30;72.90;;;;;;6076903;23;20023;-85
2020/12/11 19:07:11;;;;;;;;;;;23.30;73.10;;;;;;6156594;23;19925;-84
2020/12/11 19:09:38;;;;;;;;;;;23.40;73.10;;;;;;6128417;23;19931;-85
2020/12/11 19:12:06;;;;;;;;;;;23.30;73.00;;;;;;6154734;23;19931;-84
2020/12/11 19:14:33;;;;;;;;;;;23.30;73.10;;;;;;6129890;23;19931;-83
2020/12/11 19:17:02;;;;;;;;;;;23.30;73.30;;;;;;6131087;23;19934;-84
2020/12/11 19:19:31;;;;;;;;;;;23.20;73.50;;;;;;6130225;23;19932;-84
2020/12/11 19:21:58;;;;;;;;;;;23.20;74.40;;;;;;6143497;23;19965;-81
2020/12/11 19:24:26;;;;;;;;;;;23.20;74.60;;;;;;6147104;23;19925;-85
2020/12/11 19:26:54;;;;;;;;;;;23.10;74.40;;;;;;6040205;23;19933;-84
2020/12/11 19:29:24;;;;;;;;;;;23.10;74.50;;;;;;6053961;23;19916;-81
2020/12/11 19:31:52;;;;;;;;;;;23.10;74.60;;;;;;6032841;23;19922;-83
2020/12/11 19:34:20;;;;;;;;;;;23.10;74.60;;;;;;5992064;23;19937;-83
2020/12/11 19:36:48;;;;;;;;;;;23.10;74.90;;;;;;6039506;23;19922;-83
2020/12/11 19:39:18;;;;;;;;;;;23.20;74.70;;;;;;6041074;23;19922;-82
2020/12/11 19:41:58;;;;;;;;;;;23.30;74.50;;;;;;6052975;23;19917;-84